Time;durP1;ratioP1;P1;durP2;ratioP2;P2;SDS_P1;SDS_P2;PMS_P1;PMS_P2;Temp;Humidity;BMP_temperature;BMP_pressure;BME280_temperature;BME280_humidity;BME280_pressure;Samples;Min_cycle;Max_cycle;Signal;HPM_P1;HPM_P2
2022/07/11 00:00:06;;;;;;;3.87;3.57;;;;;;;-143.84;61.43;45031.94;5069769;28;20448;-72
2022/07/11 00:02:34;;;;;;;3.83;3.50;;;;;;;-143.84;61.50;45010.97;5069580;28;20445;-73
2022/07/11 00:05:02;;;;;;;4.33;3.77;;;;;;;-143.84;61.69;45037.66;5069458;28;20443;-74
2022/07/11 00:07:29;;;;;;;4.37;3.90;;;;;;;-143.84;62.14;45031.94;5069738;28;20476;-74
2022/07/11 00:09:56;;;;;;;4.50;4.00;;;;;;;-143.84;62.69;45020.50;5069476;28;20505;-74
2022/07/11 00:12:26;;;;;;;6.40;3.73;;;;;;;-143.84;63.03;45014.78;5069437;28;20437;-74
2022/07/11 00:14:54;;;;;;;4.43;3.53;;;;;;;-143.84;63.85;45020.50;5069166;28;20880;-73
2022/07/11 00:17:22;;;;;;;3.80;3.50;;;;;;;-143.84;64.57;45022.41;5070956;28;20569;-78
2022/07/11 00:19:50;;;;;;;3.40;3.30;;;;;;;-143.84;64.92;45035.75;5070667;28;20527;-79
2022/07/11 00:22:18;;;;;;;3.90;3.60;;;;;;;-143.84;65.55;45028.13;5070419;28;20437;-78
2022/07/11 00:24:45;;;;;;;4.50;4.10;;;;;;;-143.84;66.13;45033.84;5070755;28;20962;-79
2022/07/11 00:27:13;;;;;;;4.53;4.13;;;;;;;-143.84;66.63;45018.59;5072554;28;20976;-79
2022/07/11 00:29:40;;;;;;;3.73;3.43;;;;;;;-143.84;67.11;45028.13;5071932;28;20452;-78
2022/07/11 00:32:08;;;;;;;4.93;4.53;;;;;;;-143.84;67.59;45018.59;5071915;28;20538;-81
2022/07/11 00:34:37;;;;;;;4.93;4.47;;;;;;;-143.84;68.07;45018.59;5072143;28;20463;-78
2022/07/11 00:37:05;;;;;;;5.23;4.13;;;;;;;-143.84;68.38;45052.88;5070841;28;20487;-79
2022/07/11 00:39:32;;;;;;;4.23;3.93;;;;;;;-143.84;69.07;45031.94;5072162;28;20811;-78
2022/07/11 00:42:00;;;;;;;7.53;4.43;;;;;;;-143.84;69.94;45035.75;5072382;28;20451;-79
2022/07/11 00:44:27;;;;;;;4.60;4.10;;;;;;;-143.84;70.17;45047.16;5072181;28;20439;-79
2022/07/11 00:46:55;;;;;;;4.17;3.90;;;;;;;-143.84;70.48;45028.13;5071844;28;20821;-78
2022/07/11 00:49:23;;;;;;;4.90;4.60;;;;;;;-143.84;70.91;45041.44;5072234;28;20429;-79
2022/07/11 00:51:52;;;;;;;5.37;4.47;;;;;;;-143.84;71.05;45022.41;5071486;28;20551;-79
2022/07/11 00:54:22;;;;;;;4.60;4.30;;;;;;;-143.84;71.17;45012.88;5071947;28;20448;-79
2022/07/11 00:56:49;;;;;;;5.23;4.73;;;;;;;-143.84;71.54;45043.34;5072034;28;20473;-79
2022/07/11 00:59:18;;;;;;;5.07;4.57;;;;;;;-143.84;71.59;45035.75;5071878;28;20440;-78
2022/07/11 01:01:46;;;;;;;5.73;5.33;;;;;;;-143.84;71.70;45041.44;5072095;28;20421;-79
2022/07/11 01:04:13;;;;;;;4.87;4.57;;;;;;;-143.84;71.80;45060.50;5071740;28;20432;-79
2022/07/11 01:06:40;;;;;;;5.40;5.00;;;;;;;-143.84;71.85;45026.22;5072057;28;20444;-79
2022/07/11 01:09:09;;;;;;;4.87;4.47;;;;;;;-143.84;71.98;45035.75;5071259;28;20444;-79
2022/07/11 01:11:36;;;;;;;10.23;4.60;;;;;;;-143.84;72.13;45041.44;5071970;28;20432;-79
2022/07/11 01:14:03;;;;;;;5.40;4.90;;;;;;;-143.84;72.01;45033.84;5071695;28;20956;-79
2022/07/11 01:16:31;;;;;;;7.23;4.70;;;;;;;-143.84;72.11;45037.66;5071664;28;20487;-79
2022/07/11 01:18:58;;;;;;;5.57;5.07;;;;;;;-143.84;72.09;45070.00;5071761;28;20531;-79
2022/07/11 01:21:28;;;;;;;4.07;3.87;;;;;;;-143.84;72.03;45039.53;5072039;28;20817;-78
2022/07/11 01:23:58;;;;;;;6.00;4.93;;;;;;;-143.84;71.97;45041.44;5071609;28;20441;-78
2022/07/11 01:26:26;;;;;;;4.83;4.30;;;;;;;-143.84;72.08;45033.84;5071381;28;21169;-78
2022/07/11 01:28:55;;;;;;;5.00;4.50;;;;;;;-143.84;71.85;45031.94;5071213;28;20509;-78
2022/07/11 01:31:23;;;;;;;4.83;4.20;;;;;;;-143.84;71.76;45037.66;5071327;28;20537;-79
2022/07/11 01:33:50;;;;;;;6.60;4.70;;;;;;;-143.84;71.51;45037.66;5071476;28;20478;-78
2022/07/11 01:36:18;;;;;;;4.50;4.20;;;;;;;-143.84;71.34;45037.66;5071248;28;20567;-78
2022/07/11 01:38:45;;;;;;;4.63;4.03;;;;;;;-143.84;71.35;45056.69;5071780;28;20512;-79
2022/07/11 01:41:14;;;;;;;5.20;4.70;;;;;;;-143.84;71.10;45043.34;5071455;28;20490;-78
2022/07/11 01:43:41;;;;;;;4.83;4.43;;;;;;;-143.84;71.08;45041.44;5071156;28;20452;-79
2022/07/11 01:46:08;;;;;;;5.37;3.80;;;;;;;-143.84;70.85;45045.25;5071299;28;20506;-79
2022/07/11 01:48:35;;;;;;;5.27;4.50;;;;;;;-143.84;70.87;45033.84;5073843;28;20490;-78
2022/07/11 01:51:02;;;;;;;11.13;4.93;;;;;;;-143.84;71.05;45033.84;5074887;28;20509;-78
2022/07/11 01:53:29;;;;;;;5.70;4.20;;;;;;;-143.84;71.37;45054.78;5074877;28;20933;-79
2022/07/11 01:55:57;;;;;;;4.97;4.03;;;;;;;-143.84;71.48;45056.69;5075014;28;20432;-79
2022/07/11 01:58:25;;;;;;;5.00;4.60;;;;;;;-143.84;71.82;45039.53;5074685;28;20467;-78
2022/07/11 02:00:53;;;;;;;11.87;4.57;;;;;;;-143.84;71.82;45037.66;5074767;28;20445;-79
2022/07/11 02:03:20;;;;;;;5.33;4.93;;;;;;;-143.84;71.79;45045.25;5074885;28;20942;-78
2022/07/11 02:05:47;;;;;;;4.80;4.40;;;;;;;-143.84;72.09;45039.53;5075001;28;20439;-78
2022/07/11 02:08:15;;;;;;;4.37;4.00;;;;;;;-143.84;72.24;45031.94;5074840;28;20831;-78
2022/07/11 02:10:45;;;;;;;4.23;3.93;;;;;;;-143.84;72.44;45049.06;5074723;28;20429;-78
2022/07/11 02:13:20;;;;;;;5.10;4.60;;;;;;;-143.84;72.36;45068.13;5093364;28;21036;-78
2022/07/11 02:15:50;;;;;;;6.33;4.70;;;;;;;-143.84;72.52;45047.16;5094679;28;20487;-79
2022/07/11 02:18:19;;;;;;;5.77;5.30;;;;;;;-143.84;72.48;45071.91;5094745;28;20458;-78
2022/07/11 02:20:48;;;;;;;4.40;4.10;;;;;;;-143.84;72.59;45022.41;5094579;28;20487;-78
2022/07/11 02:23:17;;;;;;;5.30;4.90;;;;;;;-143.84;72.55;45056.69;5094676;28;20924;-79
2022/07/11 02:25:44;;;;;;;6.60;4.47;;;;;;;-143.84;72.35;45062.41;5095080;28;21124;-78
2022/07/11 02:28:12;;;;;;;5.90;4.47;;;;;;;-143.84;72.48;45028.13;5094603;28;20441;-78
2022/07/11 02:30:40;;;;;;;4.30;4.00;;;;;;;-143.84;72.28;45041.44;5094319;28;20495;-77
2022/07/11 02:33:13;;;;;;;5.00;4.67;;;;;;;-143.84;72.39;45050.97;5093824;28;20495;-78
2022/07/11 02:35:41;;;;;;;5.67;4.70;;;;;;;-143.84;72.50;45068.13;5094022;28;20446;-77
2022/07/11 02:38:08;;;;;;;4.83;4.00;;;;;;;-143.84;72.41;45020.50;5094057;28;20933;-78
2022/07/11 02:40:36;;;;;;;4.70;4.40;;;;;;;-143.84;72.21;45050.97;5094047;28;20450;-78
2022/07/11 02:43:03;;;;;;;4.90;4.40;;;;;;;-143.84;72.40;45045.25;5094496;28;20439;-78
2022/07/11 02:45:31;;;;;;;4.83;4.43;;;;;;;-143.84;72.85;45043.34;5094330;28;20951;-79
2022/07/11 02:47:58;;;;;;;5.63;5.10;;;;;;;-143.84;72.95;45054.78;5094721;28;20439;-79
2022/07/11 02:50:27;;;;;;;5.87;4.63;;;;;;;-143.84;72.95;45041.44;5094169;28;20457;-79
2022/07/11 02:52:54;;;;;;;4.60;4.20;;;;;;;-143.84;72.65;45050.97;5094191;28;20488;-79
2022/07/11 02:55:21;;;;;;;5.00;4.70;;;;;;;-143.84;72.56;45050.97;5094437;28;20423;-79
2022/07/11 02:57:48;;;;;;;6.27;4.93;;;;;;;-143.84;72.61;45047.16;5094419;28;20867;-78
2022/07/11 03:00:18;;;;;;;7.30;4.80;;;;;;;-143.84;72.64;45041.44;5093429;28;20447;-78
2022/07/11 03:02:46;;;;;;;5.70;4.43;;;;;;;-143.84;72.59;45039.53;5094218;28;20424;-78
2022/07/11 03:05:14;;;;;;;7.83;4.80;;;;;;;-143.84;72.36;45020.50;5093856;28;20442;-78
2022/07/11 03:07:42;;;;;;;5.00;4.60;;;;;;;-143.84;72.43;45031.94;5093552;28;20440;-78
2022/07/11 03:10:10;;;;;;;12.23;5.17;;;;;;;-143.84;72.08;45054.78;5094237;28;20491;-78
2022/07/11 03:12:38;;;;;;;8.30;4.13;;;;;;;-143.84;71.56;45073.81;5094214;28;20432;-79
2022/07/11 03:15:07;;;;;;;4.37;4.07;;;;;;;-143.84;70.74;45066.22;5093709;28;20461;-78
2022/07/11 03:17:35;;;;;;;4.47;4.17;;;;;;;-143.84;70.60;45039.53;5093770;28;21060;-79
2022/07/11 03:20:03;;;;;;;4.10;3.80;;;;;;;-143.84;70.40;45020.50;5093774;28;20448;-79
2022/07/11 03:22:30;;;;;;;4.57;3.73;;;;;;;-143.84;70.08;45071.91;5093359;28;20436;-79
2022/07/11 03:25:00;;;;;;;4.73;3.73;;;;;;;-143.84;70.16;45050.97;5093177;28;20435;-77
2022/07/11 03:27:27;;;;;;;4.43;4.13;;;;;;;-143.84;70.01;45050.97;5092650;28;20485;-77
2022/07/11 03:29:54;;;;;;;5.73;3.90;;;;;;;-143.84;69.60;45043.34;5092600;28;20504;-77
2022/07/11 03:32:22;;;;;;;5.00;4.27;;;;;;;-143.84;69.52;45035.75;5092933;28;20474;-78
2022/07/11 03:37:30;;;;;;;11.83;4.20;;;;;;;-143.84;69.43;45062.41;5092167;28;20489;-78
2022/07/11 03:39:59;;;;;;;4.10;3.90;;;;;;;-143.84;69.04;45022.41;5092632;28;20439;-78
2022/07/11 03:42:26;;;;;;;4.33;4.03;;;;;;;-143.84;68.95;45064.31;5092822;28;20956;-78
2022/07/11 03:44:54;;;;;;;4.30;3.73;;;;;;;-143.84;67.72;45033.84;5092865;28;20472;-78
2022/07/11 03:47:21;;;;;;;5.20;4.03;;;;;;;-143.84;65.93;45026.22;5093181;28;20439;-79
2022/07/11 03:49:48;;;;;;;4.00;3.70;;;;;;;-143.84;63.22;45007.19;5092813;28;20447;-78
2022/07/11 03:52:16;;;;;;;3.90;3.60;;;;;;;-143.84;61.95;45037.66;5092434;28;20502;-79
2022/07/11 03:54:43;;;;;;;4.37;3.60;;;;;;;-143.84;60.29;45022.41;5093014;28;20424;-78
2022/07/11 03:57:11;;;;;;;4.37;3.90;;;;;;;-143.84;58.91;45014.78;5092197;28;21076;-78
2022/07/11 03:59:39;;;;;;;3.53;3.33;;;;;;;-143.84;57.55;45003.38;5093199;28;20444;-79
2022/07/11 04:02:06;;;;;;;3.70;3.40;;;;;;;-143.84;55.49;45018.59;5093428;28;20475;-79
2022/07/11 04:04:33;;;;;;;3.73;3.50;;;;;;;-143.84;55.05;45016.69;5092682;28;20458;-79
2022/07/11 04:07:00;;;;;;;8.50;3.70;;;;;;;-143.84;54.02;45001.47;5092764;28;20434;-79
2022/07/11 04:09:27;;;;;;;6.90;3.03;;;;;;;-143.84;53.33;44972.91;5092474;28;20999;-79
2022/07/11 04:11:55;;;;;;;4.57;3.60;;;;;;;-143.84;52.46;45003.38;5091738;28;20443;-78
2022/07/11 04:14:24;;;;;;;3.20;2.47;;;;;;;-143.84;51.29;45028.13;5092588;28;20431;-78
2022/07/11 04:16:52;;;;;;;3.23;3.03;;;;;;;-143.84;50.40;44984.31;5092036;28;21007;-78
2022/07/11 04:19:19;;;;;;;3.67;2.93;;;;;;;-143.84;49.87;44999.56;5092483;28;20433;-77
2022/07/11 04:21:47;;;;;;;3.47;3.20;;;;;;;-143.84;49.33;44999.56;5091915;28;20443;-78
2022/07/11 04:24:14;;;;;;;2.87;2.67;;;;;;;-143.84;49.39;44997.66;5091778;28;20435;-77
2022/07/11 04:26:42;;;;;;;3.17;2.87;;;;;;;-143.84;49.51;44988.13;5092021;28;20496;-78
2022/07/11 04:29:09;;;;;;;2.80;2.70;;;;;;;-143.84;49.18;44995.75;5091570;28;20531;-78
2022/07/11 04:31:37;;;;;;;3.40;3.10;;;;;;;-143.84;49.24;44991.94;5091520;28;20480;-77
2022/07/11 04:34:05;;;;;;;2.63;2.43;;;;;;;-143.84;49.39;45001.47;5091469;28;20571;-78
2022/07/11 04:36:32;;;;;;;4.13;2.40;;;;;;;-143.84;48.97;45009.09;5091185;28;20432;-74
2022/07/11 04:38:59;;;;;;;3.40;2.57;;;;;;;-143.84;48.09;45010.97;5090538;28;20439;-77
2022/07/11 04:41:27;;;;;;;2.70;2.50;;;;;;;-143.84;47.88;44997.66;5090850;28;20432;-78
2022/07/11 04:43:54;;;;;;;8.13;2.57;;;;;;;-143.84;47.76;45010.97;5090194;28;20444;-78
2022/07/11 04:46:21;;;;;;;4.03;2.30;;;;;;;-143.84;47.22;44997.66;5091235;28;20443;-81
2022/07/11 04:48:51;;;;;;;2.67;2.47;;;;;;;-143.84;46.46;44993.84;5091591;28;20451;-77
2022/07/11 04:51:18;;;;;;;2.73;2.57;;;;;;;-143.84;46.06;44988.13;5090982;28;20474;-78
2022/07/11 04:53:46;;;;;;;2.83;2.40;;;;;;;-143.84;45.32;44993.84;5091342;28;20945;-77
2022/07/11 04:56:13;;;;;;;2.50;2.40;;;;;;;-143.84;44.34;44997.66;5090966;28;20447;-78
2022/07/11 04:58:40;;;;;;;2.30;2.20;;;;;;;-143.84;44.34;44997.66;5090832;28;20496;-77
2022/07/11 05:01:08;;;;;;;3.20;1.90;;;;;;;-143.84;44.13;44974.81;5090823;28;20436;-77
2022/07/11 05:03:35;;;;;;;2.27;2.17;;;;;;;-143.84;44.09;44984.31;5090702;28;20444;-78
2022/07/11 05:06:05;;;;;;;2.40;2.17;;;;;;;-143.84;43.82;44986.22;5090892;28;20444;-78
2022/07/11 05:08:36;;;;;;;2.00;1.90;;;;;;;-143.84;43.01;44991.94;5091019;28;20452;-78
2022/07/11 05:11:04;;;;;;;2.20;2.10;;;;;;;-143.84;43.19;44990.03;5091154;28;20431;-78
2022/07/11 05:13:32;;;;;;;2.00;1.67;;;;;;;-143.84;43.21;44965.28;5090369;28;20432;-77
2022/07/11 05:15:59;;;;;;;2.27;2.13;;;;;;;-143.84;42.78;44955.75;5090415;28;20458;-79
2022/07/11 05:18:26;;;;;;;2.40;2.20;;;;;;;-143.84;42.56;44965.28;5091330;28;20487;-80
2022/07/11 05:20:53;;;;;;;3.97;2.37;;;;;;;-143.84;42.12;44969.09;5091687;28;20477;-80
2022/07/11 05:23:22;;;;;;;2.27;2.07;;;;;;;-143.84;41.97;44953.88;5093978;28;21219;-79
2022/07/11 05:25:50;;;;;;;2.50;2.30;;;;;;;-143.84;41.91;44969.09;5095606;28;20440;-78
2022/07/11 05:28:17;;;;;;;2.80;2.60;;;;;;;-143.84;40.95;44971.00;5094645;28;20442;-78
2022/07/11 05:30:44;;;;;;;4.03;2.70;;;;;;;-143.84;41.47;44965.28;5094786;28;20431;-78
2022/07/11 05:33:11;;;;;;;3.30;1.90;;;;;;;-143.84;41.11;44959.56;5094544;28;20444;-78
2022/07/11 05:35:38;;;;;;;2.23;2.13;;;;;;;-143.84;40.50;44955.75;5094464;28;20436;-78
2022/07/11 05:38:05;;;;;;;2.50;2.30;;;;;;;-143.84;40.29;45003.38;5094658;28;20914;-78
2022/07/11 05:40:34;;;;;;;2.60;2.40;;;;;;;-143.84;39.92;44944.34;5094286;28;20432;-78
2022/07/11 05:43:02;;;;;;;2.07;1.97;;;;;;;-143.84;39.22;44955.75;5094317;28;20519;-78
2022/07/11 05:45:29;;;;;;;2.10;2.00;;;;;;;-143.84;39.00;44955.75;5094480;28;20535;-79
2022/07/11 05:47:56;;;;;;;2.20;2.00;;;;;;;-143.84;38.78;44936.72;5094071;28;20436;-78
2022/07/11 05:50:24;;;;;;;2.03;1.93;;;;;;;-143.84;38.56;44942.44;5093932;28;20926;-80
2022/07/11 05:52:51;;;;;;;3.80;1.97;;;;;;;-143.84;37.90;44940.53;5094369;28;20432;-79
2022/07/11 05:55:18;;;;;;;4.53;2.03;;;;;;;-143.84;38.01;44959.56;5094385;28;20500;-79
2022/07/11 05:57:47;;;;;;;2.30;2.20;;;;;;;-143.84;37.26;44932.91;5094237;28;21319;-78
2022/07/11 06:00:14;;;;;;;3.47;1.77;;;;;;;-143.84;37.63;44923.41;5095061;28;20448;-79
2022/07/11 06:02:44;;;;;;;2.33;2.07;;;;;;;-143.84;36.68;44942.44;5094634;28;20439;-78
2022/07/11 06:05:12;;;;;;;2.27;2.13;;;;;;;-143.84;37.22;44965.28;5094302;28;20432;-79
2022/07/11 06:10:23;;;;;;;2.07;1.97;;;;;;;-143.84;37.10;44921.50;5093890;28;20895;-78
2022/07/11 06:12:52;;;;;;;2.40;2.20;;;;;;;-143.84;36.53;44925.31;5093770;28;20439;-78
2022/07/11 06:15:19;;;;;;;2.37;2.17;;;;;;;-143.84;36.45;44929.09;5094004;28;20497;-78
2022/07/11 06:17:46;;;;;;;3.40;2.43;;;;;;;-143.84;36.62;44919.59;5093674;28;20981;-78
2022/07/11 06:20:13;;;;;;;2.17;2.07;;;;;;;-143.84;36.54;44919.59;5093342;28;20443;-78
2022/07/11 06:22:40;;;;;;;1.73;1.63;;;;;;;-143.84;36.24;44919.59;5093603;28;20446;-78
2022/07/11 06:25:09;;;;;;;2.60;2.30;;;;;;;-143.84;36.70;44923.41;5093557;28;20833;-78
2022/07/11 06:27:36;;;;;;;3.10;2.47;;;;;;;-143.84;35.93;44904.34;5093375;28;20527;-78
2022/07/11 06:30:05;;;;;;;3.43;2.13;;;;;;;-143.84;35.73;44898.66;5093546;28;20440;-78
2022/07/11 06:32:32;;;;;;;2.40;2.20;;;;;;;-143.84;35.76;44911.97;5093092;28;20487;-78
2022/07/11 06:35:00;;;;;;;2.80;2.60;;;;;;;-143.84;36.65;44908.16;5092134;28;20440;-78
2022/07/11 06:37:27;;;;;;;5.43;2.03;;;;;;;-143.84;37.20;44910.06;5092940;28;20447;-78
2022/07/11 06:39:54;;;;;;;3.07;2.77;;;;;;;-143.84;36.81;44908.16;5093176;28;20432;-78
2022/07/11 06:50:28;;;;;;;2.90;2.60;;;;;;;-143.84;36.55;44881.50;5105216;27;20559;-74
2022/07/11 06:58:33;;;;;;;3.70;3.03;;;;;;;-143.84;35.63;44910.06;5069183;27;1563594;-76
2022/07/11 07:01:01;;;;;;;2.90;2.57;;;;;;;-143.84;36.09;44894.84;5088633;28;20205;-77
2022/07/11 07:03:28;;;;;;;3.33;3.03;;;;;;;-143.84;36.30;44898.66;5089309;28;20420;-77
2022/07/11 07:05:57;;;;;;;3.73;3.30;;;;;;;-143.84;36.24;44896.75;5089362;28;20986;-76
2022/07/11 07:08:25;;;;;;;3.53;3.33;;;;;;;-143.84;35.88;44906.25;5109212;28;20480;-77
2022/07/11 07:10:54;;;;;;;3.43;3.10;;;;;;;-143.84;36.81;44908.16;5108995;28;20442;-76
2022/07/11 07:13:25;;;;;;;4.33;3.20;;;;;;;-143.84;36.75;44896.75;5108957;28;20442;-76
2022/07/11 07:15:54;;;;;;;3.60;3.40;;;;;;;-143.84;37.13;44919.59;5109012;28;20439;-76
2022/07/11 07:18:21;;;;;;;4.33;2.93;;;;;;;-143.84;37.44;44908.16;5108855;28;20483;-76
2022/07/11 07:20:49;;;;;;;3.33;2.97;;;;;;;-143.84;37.45;44904.34;5108525;28;20445;-76
2022/07/11 07:23:16;;;;;;;3.23;3.03;;;;;;;-143.84;37.61;44940.53;5108840;28;20467;-76
2022/07/11 07:25:44;;;;;;;6.67;3.30;;;;;;;-143.84;37.68;44923.41;5108784;28;20463;-77
2022/07/11 07:28:11;;;;;;;4.30;3.50;;;;;;;-143.84;37.90;44917.69;5108872;28;20439;-76
2022/07/11 07:30:40;;;;;;;3.30;3.10;;;;;;;-143.84;38.61;44915.78;5108932;28;20451;-77
2022/07/11 07:33:09;;;;;;;3.83;3.50;;;;;;;-143.84;38.03;44929.09;5108852;28;20455;-76
2022/07/11 07:35:36;;;;;;;4.63;3.50;;;;;;;-143.84;37.91;44919.59;5108644;28;20439;-77
2022/07/11 07:38:03;;;;;;;3.30;3.00;;;;;;;-143.84;37.79;44915.78;5108484;28;20478;-76
2022/07/11 07:40:30;;;;;;;3.57;3.27;;;;;;;-143.84;37.67;44894.84;5108259;28;20435;-77
2022/07/11 07:42:58;;;;;;;3.80;3.47;;;;;;;-143.84;37.31;44904.34;5107149;28;20458;-76
2022/07/11 07:45:25;;;;;;;3.30;3.10;;;;;;;-143.84;36.30;44915.78;5104918;28;20438;-77
2022/07/11 07:47:52;;;;;;;3.87;3.47;;;;;;;-143.84;36.42;44892.94;5105418;28;20454;-77
2022/07/11 07:50:22;;;;;;;2.83;2.73;;;;;;;-143.84;36.99;44889.13;5107907;28;21268;-77
2022/07/11 07:52:49;;;;;;;6.10;3.10;;;;;;;-143.84;36.36;44902.44;5107017;28;20436;-76
2022/07/11 07:55:16;;;;;;;2.77;2.33;;;;;;;-143.84;36.57;44923.41;5107495;28;20497;-76
2022/07/11 07:57:43;;;;;;;3.00;2.80;;;;;;;-143.84;36.10;44894.84;5107990;28;20494;-76
2022/07/11 08:02:55;;;;;;;3.23;3.03;;;;;;;-143.84;36.02;44929.09;5108505;28;20485;-76
2022/07/11 08:05:24;;;;;;;2.80;2.70;;;;;;;-143.84;36.79;44915.78;5108253;28;20485;-76
2022/07/11 08:07:51;;;;;;;2.97;2.67;;;;;;;-143.84;37.00;44871.97;5105622;28;20848;-76
2022/07/11 08:10:18;;;;;;;2.77;2.57;;;;;;;-143.84;36.52;44894.84;5093545;28;20993;-76
2022/07/11 08:12:45;;;;;;;5.60;2.73;;;;;;;-143.84;36.39;44879.59;5093887;28;20431;-76
2022/07/11 08:15:13;;;;;;;2.57;2.30;;;;;;;-143.84;35.90;44898.66;5094285;28;21169;-76
2022/07/11 08:17:41;;;;;;;2.67;2.13;;;;;;;-143.84;36.47;44892.94;5094556;28;20831;-76
2022/07/11 08:20:09;;;;;;;3.57;2.67;;;;;;;-143.84;35.48;44910.06;5094060;28;21040;-76
2022/07/11 08:22:38;;;;;;;2.50;2.30;;;;;;;-143.84;35.25;44892.94;5094193;28;20763;-77
2022/07/11 08:25:05;;;;;;;6.57;2.80;;;;;;;-143.84;35.92;44913.88;5094115;28;20489;-77
2022/07/11 08:27:33;;;;;;;2.60;2.40;;;;;;;-143.84;35.46;44906.25;5094041;28;20443;-76
2022/07/11 08:30:03;;;;;;;2.43;2.33;;;;;;;-143.84;34.96;44887.22;5094336;28;20481;-77
2022/07/11 08:32:30;;;;;;;2.90;2.10;;;;;;;-143.84;35.41;44885.31;5094022;28;20480;-77
2022/07/11 08:34:57;;;;;;;6.00;2.30;;;;;;;-143.84;34.65;44891.03;5094271;28;20432;-77
2022/07/11 08:37:24;;;;;;;2.40;2.20;;;;;;;-143.84;35.24;44896.75;5093712;28;20472;-76
2022/07/11 08:39:53;;;;;;;4.43;2.47;;;;;;;-143.84;35.18;44852.94;5094139;28;20781;-77
2022/07/11 08:42:21;;;;;;;2.37;2.17;;;;;;;-143.84;35.08;44877.69;5093963;28;20436;-76
2022/07/11 08:44:48;;;;;;;3.67;2.50;;;;;;;-143.84;34.24;44883.41;5093650;28;20528;-77
2022/07/11 08:47:16;;;;;;;4.23;2.37;;;;;;;-143.84;34.10;44868.19;5093173;28;20432;-76
2022/07/11 08:49:44;;;;;;;9.00;2.47;;;;;;;-143.84;34.93;44858.66;5093653;28;20495;-76
2022/07/11 08:52:14;;;;;;;2.10;2.00;;;;;;;-143.84;34.77;44906.25;5093166;28;20536;-76
2022/07/11 08:54:41;;;;;;;3.33;2.83;;;;;;;-143.84;34.09;44885.31;5084343;28;21363;-76
2022/07/11 08:57:11;;;;;;;2.97;2.70;;;;;;;-143.84;33.69;44866.28;5072787;28;20496;-76
2022/07/11 08:59:41;;;;;;;5.27;2.67;;;;;;;-143.84;34.42;44870.09;5072927;28;20457;-76
2022/07/11 09:02:10;;;;;;;2.60;2.40;;;;;;;-143.84;34.16;44845.31;5072597;28;20811;-76
2022/07/11 09:04:38;;;;;;;3.67;2.50;;;;;;;-143.84;33.40;44877.69;5072783;28;20429;-76
2022/07/11 09:07:06;;;;;;;3.33;2.20;;;;;;;-143.84;33.88;44879.59;5072635;28;20453;-76
2022/07/11 09:09:33;;;;;;;3.67;2.30;;;;;;;-143.84;34.74;44858.66;5072061;28;20429;-76
2022/07/11 09:12:00;;;;;;;2.07;1.97;;;;;;;-143.84;33.97;44875.78;5071596;28;20480;-75
2022/07/11 09:14:31;;;;;;;3.90;2.40;;;;;;;-143.84;33.69;44854.84;5070930;28;20425;-74
2022/07/11 09:17:00;;;;;;;3.10;2.40;;;;;;;-143.84;35.36;44879.59;5070220;28;20490;-74
2022/07/11 09:19:30;;;;;;;3.00;2.80;;;;;;;-143.84;34.37;44881.50;5070174;28;20965;-75
2022/07/11 09:27:43;;;;;;;4.33;2.23;;;;;;;-143.84;34.20;44892.94;5070457;28;20538;-74
2022/07/11 09:30:20;;;;;;;4.60;2.00;;;;;;;-143.84;33.74;44866.28;5070327;28;20451;-75
2022/07/11 09:32:55;;;;;;;5.73;2.47;;;;;;;-143.84;34.56;44906.25;5070285;28;20505;-75
2022/07/11 09:35:22;;;;;;;2.80;2.60;;;;;;;-143.84;34.65;44879.59;5070022;28;20443;-74
2022/07/11 09:37:50;;;;;;;3.10;2.20;;;;;;;-143.84;34.05;44885.31;5069954;28;20491;-74
2022/07/11 09:40:17;;;;;;;7.23;2.77;;;;;;;-143.84;34.62;44902.44;5070104;28;20444;-75
2022/07/11 09:42:49;;;;;;;5.13;2.00;;;;;;;-143.84;34.38;44900.53;5070226;28;20531;-74
2022/07/11 09:45:18;;;;;;;2.30;1.80;;;;;;;-143.84;35.20;44877.69;5069835;28;20445;-74
2022/07/11 09:47:46;;;;;;;3.10;2.40;;;;;;;-143.84;34.62;44883.41;5069795;28;20444;-74
2022/07/11 09:50:14;;;;;;;2.80;1.97;;;;;;;-143.84;34.24;44883.41;5069728;28;20441;-74
2022/07/11 09:52:45;;;;;;;3.03;2.20;;;;;;;-143.84;33.85;44894.84;5070242;28;20445;-76
2022/07/11 09:55:12;;;;;;;4.50;2.33;;;;;;;-143.84;34.24;44889.13;5069809;28;20435;-74
2022/07/11 09:57:40;;;;;;;3.10;2.77;;;;;;;-143.84;34.63;44873.88;5069260;28;20496;-74
2022/07/11 10:00:11;;;;;;;5.83;2.27;;;;;;;-143.84;35.03;44915.78;5069660;28;21339;-74
2022/07/11 10:02:40;;;;;;;1.80;1.70;;;;;;;-143.84;34.16;44891.03;5069459;28;20540;-74
2022/07/11 10:05:08;;;;;;;15.73;2.47;;;;;;;-143.84;35.20;44894.84;5069546;28;20506;-76
2022/07/11 10:07:35;;;;;;;2.43;2.23;;;;;;;-143.84;34.44;44896.75;5069664;28;20437;-77
2022/07/11 10:10:04;;;;;;;3.73;2.27;;;;;;;-143.84;34.83;44927.19;5070017;28;20514;-77
2022/07/11 10:12:32;;;;;;;2.33;2.23;;;;;;;-143.84;35.34;44906.25;5069424;28;21011;-74
2022/07/11 10:15:03;;;;;;;1.90;1.80;;;;;;;-143.84;34.96;44919.59;5069373;28;20441;-74
2022/07/11 10:17:37;;;;;;;2.53;2.17;;;;;;;-143.84;35.65;44900.53;5068987;28;20563;-74
2022/07/11 10:20:15;;;;;;;4.40;2.10;;;;;;;-143.84;34.00;44881.50;5069738;28;21407;-74
2022/07/11 10:22:49;;;;;;;3.37;2.13;;;;;;;-143.84;33.70;44915.78;5069504;28;20985;-74
2022/07/11 10:25:25;;;;;;;2.37;2.17;;;;;;;-143.84;34.22;44854.84;5069286;28;20439;-74
2022/07/11 10:28:09;;;;;;;2.40;2.20;;;;;;;-143.84;34.62;44896.75;5069265;28;20494;-74
2022/07/11 10:30:47;;;;;;;2.37;1.70;;;;;;;-143.84;34.19;44881.50;5069525;28;20449;-74
2022/07/11 10:33:16;;;;;;;2.47;2.20;;;;;;;-143.84;34.35;44892.94;5068736;28;20448;-74
2022/07/11 10:35:46;;;;;;;2.40;2.20;;;;;;;-143.84;33.82;44885.31;5068991;28;20443;-74
2022/07/11 10:38:14;;;;;;;2.10;2.00;;;;;;;-143.84;34.56;44889.13;5069223;28;20541;-74
2022/07/11 10:40:50;;;;;;;2.10;1.93;;;;;;;-143.84;34.92;44911.97;5068951;28;20541;-74
2022/07/11 10:43:43;;;;;;;1.77;1.67;;;;;;;-143.84;34.14;44906.25;5050980;28;20455;-74
2022/07/11 10:46:12;;;;;;;1.80;1.70;;;;;;;-143.84;33.89;44879.59;5067235;28;20451;-74
2022/07/11 10:48:56;;;;;;;1.57;1.47;;;;;;;-143.84;33.03;44896.75;5068798;28;20527;-76
2022/07/11 10:51:28;;;;;;;2.27;2.03;;;;;;;-143.84;33.39;44879.59;5068742;28;20444;-77
2022/07/11 10:54:05;;;;;;;2.87;2.00;;;;;;;-143.84;33.29;44892.94;5068969;28;20448;-76
2022/07/11 10:56:51;;;;;;;3.13;2.00;;;;;;;-143.84;33.90;44879.59;5068312;28;20539;-76
2022/07/11 10:59:20;;;;;;;7.67;1.90;;;;;;;-143.84;33.34;44900.53;5068674;28;20594;-76
2022/07/11 11:02:10;;;;;;;6.07;2.47;;;;;;;-143.84;34.41;44892.94;5068520;28;20527;-76
2022/07/11 11:04:45;;;;;;;3.50;1.90;;;;;;;-143.84;33.60;44875.78;5068764;28;20468;-76
2022/07/11 11:07:33;;;;;;;2.00;1.90;;;;;;;-143.84;33.48;44879.59;5068693;28;20452;-77
2022/07/11 11:10:02;;;;;;;8.37;2.30;;;;;;;-143.84;33.74;44868.19;5068470;28;20510;-77
2022/07/11 11:13:07;;;;;;;3.00;2.10;;;;;;;-143.84;33.33;44879.59;5068840;28;20856;-76
2022/07/11 11:15:35;;;;;;;3.23;2.27;;;;;;;-143.84;34.40;44904.34;5068445;28;20523;-77
2022/07/11 11:18:36;;;;;;;2.10;2.00;;;;;;;-143.84;34.28;44892.94;5068495;28;20519;-76
2022/07/11 11:21:23;;;;;;;4.20;1.83;;;;;;;-143.84;33.04;44904.34;5068727;28;20519;-77
2022/07/11 11:24:11;;;;;;;1.73;1.63;;;;;;;-143.84;33.12;44881.50;5068534;28;20807;-76
2022/07/11 11:26:47;;;;;;;2.20;2.10;;;;;;;-143.84;33.45;44889.13;5068771;28;20498;-77
2022/07/11 11:29:20;;;;;;;1.70;1.60;;;;;;;-143.84;32.60;44885.31;5068404;28;20451;-76
2022/07/11 11:31:50;;;;;;;4.20;2.17;;;;;;;-143.84;33.29;44870.09;5068740;28;20959;-74
2022/07/11 11:34:19;;;;;;;4.67;2.40;;;;;;;-143.84;33.24;44894.84;5068515;28;20877;-76
2022/07/11 11:36:53;;;;;;;2.60;2.40;;;;;;;-143.84;34.03;44879.59;5068864;28;20437;-76
2022/07/11 11:39:27;;;;;;;3.83;1.63;;;;;;;-143.84;33.51;44896.75;5068290;28;20537;-76
2022/07/11 11:41:55;;;;;;;2.50;2.30;;;;;;;-143.84;32.70;44902.44;5068332;28;20962;-76
2022/07/11 11:44:22;;;;;;;4.03;2.00;;;;;;;-143.84;33.35;44902.44;5070594;28;20433;-76
2022/07/11 11:46:53;;;;;;;3.73;2.43;;;;;;;-143.84;34.84;44881.50;5072190;28;20864;-76
2022/07/11 11:49:20;;;;;;;5.67;2.00;;;;;;;-143.84;34.08;44889.13;5072323;28;20553;-77
2022/07/11 11:51:49;;;;;;;3.43;2.50;;;;;;;-143.84;32.52;44894.84;5072142;28;20448;-77